Time;durP1;ratioP1;P1;durP2;ratioP2;P2;SDS_P1;SDS_P2;PMS_P1;PMS_P2;Temp;Humidity;BMP_temperature;BMP_pressure;BME280_temperature;BME280_humidity;BME280_pressure;Samples;Min_cycle;Max_cycle;Signal;HPM_P1;HPM_P2
2023/02/23 00:00:27;;;;;;;16.70;6.60;;;;;;;-4.62;60.01;99648.68;80820;1295;3026995;-65
2023/02/23 00:03:00;;;;;;;13.50;7.00;;;;;;;-4.63;60.24;99648.33;82074;1294;3011274;-65
2023/02/23 00:05:29;;;;;;;19.30;7.10;;;;;;;-4.62;60.41;99652.45;80817;1294;3049195;-64
2023/02/23 00:07:56;;;;;;;14.40;6.80;;;;;;;-4.62;60.37;99656.38;82099;1294;3012417;-64
2023/02/23 00:10:32;;;;;;;10.80;5.90;;;;;;;-4.66;60.62;99658.76;80807;1294;3068747;-65
2023/02/23 00:12:59;;;;;;;12.90;6.50;;;;;;;-4.67;60.86;99664.39;82037;1295;3011209;-63
2023/02/23 00:15:32;;;;;;;13.20;6.40;;;;;;;-4.75;60.80;99667.77;80846;1294;3056752;-62
2023/02/23 00:17:59;;;;;;;14.80;7.00;;;;;;;-4.74;61.50;99668.45;82075;1295;3018432;-64
2023/02/23 00:20:26;;;;;;;15.50;7.00;;;;;;;-4.71;61.24;99674.29;82043;1295;3011203;-63
2023/02/23 00:22:55;;;;;;;12.30;6.20;;;;;;;-4.81;61.75;99677.48;80805;1295;3052322;-63
2023/02/23 00:25:23;;;;;;;15.10;7.20;;;;;;;-4.78;61.57;99680.91;82098;1294;3012466;-63
2023/02/23 00:27:50;;;;;;;15.60;6.60;;;;;;;-4.88;61.30;99681.04;82049;1295;3011322;-64
2023/02/23 00:30:19;;;;;;;16.00;6.70;;;;;;;-5.05;62.08;99683.66;80785;1294;3056962;-62
2023/02/23 00:32:54;;;;;;;14.50;6.10;;;;;;;-4.85;62.02;99686.35;81511;1294;3011320;-63
2023/02/23 00:35:23;;;;;;;17.60;7.40;;;;;;;-4.94;62.10;99691.09;82052;1295;3011159;-64
2023/02/23 00:37:53;;;;;;;11.70;5.20;;;;;;;-4.99;61.74;99696.68;80787;1295;3049973;-64
2023/02/23 00:40:22;;;;;;;15.10;5.80;;;;;;;-5.10;62.01;99695.93;82103;1295;3012580;-63
2023/02/23 00:42:50;;;;;;;11.50;5.70;;;;;;;-4.94;62.69;99697.23;82015;1295;3011359;-63
2023/02/23 00:45:19;;;;;;;13.60;6.60;;;;;;;-4.83;61.96;99697.81;80800;1294;3050803;-63
2023/02/23 00:47:47;;;;;;;18.00;7.40;;;;;;;-4.88;62.29;99702.05;81987;1295;3011048;-64
2023/02/23 00:50:15;;;;;;;8.40;5.50;;;;;;;-4.99;62.78;99704.04;82029;1294;3011285;-64
2023/02/23 00:52:43;;;;;;;10.90;5.90;;;;;;;-4.95;62.35;99701.49;80734;1295;3048726;-63
2023/02/23 00:55:11;;;;;;;12.10;5.60;;;;;;;-4.92;62.38;99702.20;82090;1294;3012305;-65
2023/02/23 00:57:41;;;;;;;10.50;5.20;;;;;;;-4.90;62.25;99708.54;81489;1298;3011544;-65
2023/02/23 01:00:19;;;;;;;12.90;5.30;;;;;;;-4.89;62.03;99706.15;82094;1295;3012731;-65
2023/02/23 01:02:48;;;;;;;11.90;4.90;;;;;;;-4.75;62.04;99711.35;80820;1295;3055607;-63
2023/02/23 01:05:20;;;;;;;12.80;6.20;;;;;;;-4.69;61.92;99714.63;82075;1294;3011183;-64
2023/02/23 01:07:50;;;;;;;11.90;5.40;;;;;;;-4.81;62.37;99717.64;80716;1295;3051790;-63
2023/02/23 01:10:20;;;;;;;10.80;5.60;;;;;;;-4.87;62.62;99719.32;82050;1295;3018156;-65
2023/02/23 01:12:49;;;;;;;11.40;4.80;;;;;;;-4.90;63.18;99719.30;80731;1298;3051063;-64
2023/02/23 01:15:17;;;;;;;13.50;5.60;;;;;;;-4.78;62.68;99721.93;81999;1298;3013223;-63
2023/02/23 01:17:44;;;;;;;12.70;5.20;;;;;;;-4.76;62.61;99718.52;81974;1295;3012247;-65
2023/02/23 01:20:16;;;;;;;12.90;5.40;;;;;;;-4.76;63.13;99722.96;80773;1295;3047571;-65
2023/02/23 01:22:46;;;;;;;14.20;6.60;;;;;;;-4.88;63.46;99727.69;82022;1295;3011935;-63
2023/02/23 01:25:15;;;;;;;11.90;5.80;;;;;;;-4.92;63.56;99723.55;80777;1295;3048885;-65
2023/02/23 01:27:45;;;;;;;10.20;5.40;;;;;;;-4.81;63.29;99726.02;82088;1298;3012503;-64
2023/02/23 01:30:13;;;;;;;15.00;6.10;;;;;;;-4.98;63.18;99726.42;80804;1294;3068946;-65
2023/02/23 01:32:40;;;;;;;11.80;5.70;;;;;;;-4.90;63.18;99723.06;82077;1294;3013315;-63
2023/02/23 01:35:08;;;;;;;10.80;5.70;;;;;;;-4.79;63.32;99727.75;82067;1294;3011140;-64
2023/02/23 01:37:40;;;;;;;16.80;6.20;;;;;;;-4.87;62.66;99731.46;80741;1295;3053027;-65
2023/02/23 01:40:14;;;;;;;10.80;5.10;;;;;;;-5.02;60.96;99736.14;80819;1294;3049472;-63
2023/02/23 01:42:45;;;;;;;10.60;5.50;;;;;;;-5.05;60.71;99730.31;82044;1298;3011339;-64
2023/02/23 01:45:33;;;;;;;10.50;5.30;;;;;;;-5.01;60.61;99738.02;80792;1295;3051349;-64
2023/02/23 01:48:27;;;;;;;14.50;7.00;;;;;;;-5.07;60.15;99743.95;80777;1296;3068816;-63
2023/02/23 01:51:03;;;;;;;32.10;10.20;;;;;;;-5.18;59.91;99746.96;80803;1295;3051746;-63
2023/02/23 01:53:33;;;;;;;22.20;8.40;;;;;;;-5.21;59.44;99749.83;79181;1295;3055334;-63
2023/02/23 01:56:10;;;;;;;18.00;8.20;;;;;;;-5.24;59.73;99751.87;81944;1295;3012476;-64
2023/02/23 01:58:42;;;;;;;15.50;7.00;;;;;;;-5.33;58.97;99751.78;80719;1301;3049223;-63
2023/02/23 02:01:09;;;;;;;16.10;6.10;;;;;;;-5.45;59.89;99755.79;81932;1295;3011240;-64
2023/02/23 02:03:46;;;;;;;15.40;6.90;;;;;;;-5.38;60.13;99760.95;81433;1297;3011393;-63
2023/02/23 02:06:16;;;;;;;10.40;5.70;;;;;;;-5.29;59.96;99762.07;80707;1295;3069970;-64
2023/02/23 02:08:46;;;;;;;11.70;6.20;;;;;;;-5.38;60.17;99772.06;82012;1295;3011063;-63
2023/02/23 02:11:24;;;;;;;15.40;5.90;;;;;;;-5.25;60.20;99773.71;80763;1295;3056172;-64
2023/02/23 02:13:53;;;;;;;13.80;6.20;;;;;;;-5.18;59.69;99772.75;80750;1295;3049114;-64
2023/02/23 02:16:53;;;;;;;9.80;5.40;;;;;;;-5.36;60.34;99776.18;81933;1295;3011153;-64
2023/02/23 02:19:49;;;;;;;12.10;5.50;;;;;;;-5.23;60.28;99780.39;80574;1295;3050764;-63
2023/02/23 02:22:47;;;;;;;9.80;5.70;;;;;;;-5.38;60.53;99780.42;80767;1298;3052536;-63
2023/02/23 02:25:15;;;;;;;8.80;5.20;;;;;;;-5.35;61.01;99781.48;80804;1298;3053097;-64
2023/02/23 02:28:03;;;;;;;8.30;4.90;;;;;;;-5.36;60.62;99785.23;82037;1295;3018070;-66
2023/02/23 02:30:47;;;;;;;11.90;5.00;;;;;;;-5.36;60.35;99790.20;80684;1295;3055901;-64
2023/02/23 02:33:39;;;;;;;12.30;5.50;;;;;;;-5.31;60.84;99790.23;80792;1295;3048307;-63
2023/02/23 02:36:21;;;;;;;11.50;5.10;;;;;;;-5.43;61.09;99794.05;80744;1294;3053227;-63
2023/02/23 02:39:22;;;;;;;11.70;6.10;;;;;;;-5.46;60.48;99793.16;80686;1295;3049780;-64
2023/02/23 02:42:16;;;;;;;13.50;6.10;;;;;;;-5.45;60.18;99795.05;80751;1298;3051144;-64
2023/02/23 02:45:21;;;;;;;20.80;6.90;;;;;;;-5.50;59.72;99796.19;80801;1295;3052251;-65
2023/02/23 02:48:24;;;;;;;20.80;7.80;;;;;;;-5.49;59.45;99805.42;80720;1295;3069213;-65
2023/02/23 02:51:01;;;;;;;25.60;9.20;;;;;;;-5.42;59.68;99805.31;80726;1296;3051093;-64
2023/02/23 02:53:45;;;;;;;20.10;7.70;;;;;;;-5.59;59.25;99812.67;80781;1294;3056083;-63
2023/02/23 02:56:18;;;;;;;17.20;7.40;;;;;;;-5.52;59.25;99813.60;80771;1295;3048892;-64
2023/02/23 02:58:45;;;;;;;23.10;8.80;;;;;;;-5.58;59.71;99817.11;81997;1295;3011161;-63
2023/02/23 04:19:05;;;;;;;15.70;6.40;;;;;;;-6.56;60.74;99890.43;80764;1299;3068019;-63
2023/02/23 04:21:32;;;;;;;11.60;5.90;;;;;;;-6.59;60.78;99891.91;82060;1295;3012911;-64
2023/02/23 04:23:58;;;;;;;13.00;6.00;;;;;;;-6.55;61.02;99891.30;82074;1295;3011306;-63
2023/02/23 04:26:26;;;;;;;10.00;5.60;;;;;;;-6.51;61.24;99895.62;80804;1295;3025772;-64
2023/02/23 04:28:53;;;;;;;15.90;5.40;;;;;;;-6.51;61.08;99900.05;82036;1299;3018632;-64
2023/02/23 04:31:23;;;;;;;13.70;6.80;;;;;;;-6.58;60.53;99907.09;82074;1295;3011653;-65
2023/02/23 04:33:50;;;;;;;12.90;6.40;;;;;;;-6.64;60.66;99903.77;80778;1295;3067394;-64
2023/02/23 04:36:17;;;;;;;11.40;5.90;;;;;;;-6.66;60.83;99908.34;82063;1295;3012830;-63
2023/02/23 04:38:45;;;;;;;11.90;6.20;;;;;;;-6.78;60.17;99906.27;82053;1295;3011458;-64
2023/02/23 04:41:13;;;;;;;14.70;5.70;;;;;;;-6.80;61.02;99908.46;80780;1295;3053333;-64
2023/02/23 04:43:41;;;;;;;15.30;6.80;;;;;;;-6.77;60.46;99910.02;82058;1298;3013173;-63
2023/02/23 04:46:07;;;;;;;16.20;6.80;;;;;;;-6.64;60.40;99915.85;82073;1295;3011282;-63
2023/02/23 04:48:35;;;;;;;15.10;6.50;;;;;;;-6.75;60.43;99920.45;80802;1295;3068958;-63
2023/02/23 04:51:02;;;;;;;19.70;7.60;;;;;;;-6.81;60.48;99928.00;82090;1294;3018153;-63
2023/02/23 04:53:29;;;;;;;16.70;7.20;;;;;;;-6.80;60.69;99932.30;82025;1295;3011525;-63
2023/02/23 04:55:57;;;;;;;15.40;5.70;;;;;;;-6.66;60.35;99936.10;80799;1296;3026747;-64
2023/02/23 04:58:24;;;;;;;14.30;6.70;;;;;;;-6.64;60.19;99940.73;82066;1295;3013373;-63
2023/02/23 05:00:51;;;;;;;16.30;7.30;;;;;;;-6.52;59.86;99942.64;82045;1295;3011384;-63
2023/02/23 05:03:19;;;;;;;15.50;7.10;;;;;;;-6.54;59.57;99944.13;80810;1296;3025936;-63
2023/02/23 05:05:47;;;;;;;15.50;6.90;;;;;;;-6.65;59.91;99949.58;82078;1295;3012942;-62
2023/02/23 05:08:13;;;;;;;14.40;6.20;;;;;;;-6.59;59.61;99955.30;82007;1295;3011581;-63
2023/02/23 05:10:47;;;;;;;15.60;6.90;;;;;;;-6.57;59.54;99967.77;80745;1300;3052338;-62
2023/02/23 05:13:14;;;;;;;11.40;6.90;;;;;;;-6.56;60.17;99970.88;82020;1298;3012740;-63
2023/02/23 05:15:41;;;;;;;14.30;7.40;;;;;;;-6.65;60.44;99972.09;82001;1299;3011224;-63
2023/02/23 05:18:09;;;;;;;13.90;5.70;;;;;;;-6.58;60.39;99972.70;80733;1297;3069500;-64
2023/02/23 05:20:36;;;;;;;13.30;6.70;;;;;;;-6.49;59.64;99975.58;82072;1296;3012707;-63
2023/02/23 05:23:03;;;;;;;16.30;6.30;;;;;;;-6.41;60.28;99985.61;82050;1294;3011129;-63
2023/02/23 05:25:32;;;;;;;13.20;5.90;;;;;;;-6.52;60.15;99984.91;80771;1295;3051761;-64
2023/02/23 05:27:59;;;;;;;12.50;6.20;;;;;;;-6.45;60.64;99988.10;82052;1299;3012870;-64
2023/02/23 05:30:26;;;;;;;12.60;6.70;;;;;;;-6.37;59.64;99994.71;82006;1300;3011412;-64
2023/02/23 05:32:53;;;;;;;16.10;7.30;;;;;;;-6.43;59.86;99996.48;80760;1295;3069550;-64
2023/02/23 05:35:20;;;;;;;15.10;6.30;;;;;;;-6.57;59.96;99998.64;81991;1295;3018107;-67
2023/02/23 05:37:47;;;;;;;14.30;7.00;;;;;;;-6.44;60.36;99999.36;82010;1295;3011263;-64
2023/02/23 05:40:15;;;;;;;15.40;6.10;;;;;;;-6.40;60.51;100002.50;80721;1299;3026026;-64
2023/02/23 05:42:43;;;;;;;12.10;6.20;;;;;;;-6.47;59.57;100011.25;82028;1298;3011232;-63
2023/02/23 05:45:10;;;;;;;12.10;6.00;;;;;;;-6.64;59.66;100008.74;82052;1298;3011767;-65
2023/02/23 05:47:38;;;;;;;12.10;5.70;;;;;;;-6.51;60.11;100009.29;80769;1299;3068136;-64
2023/02/23 05:50:06;;;;;;;12.20;5.70;;;;;;;-6.40;59.79;100012.71;82094;1295;3012595;-65
2023/02/23 05:52:37;;;;;;;14.60;5.00;;;;;;;-6.41;59.25;100012.71;82042;1295;3011431;-63
2023/02/23 05:55:05;;;;;;;12.90;5.50;;;;;;;-6.36;59.98;100012.63;80767;1295;3053102;-64
2023/02/23 05:57:32;;;;;;;10.70;5.60;;;;;;;-6.27;59.76;100019.26;82019;1295;3012480;-64
2023/02/23 05:59:58;;;;;;;9.90;5.70;;;;;;;-6.20;59.91;100016.13;82032;1299;3011564;-64
2023/02/23 06:02:27;;;;;;;12.70;6.10;;;;;;;-6.23;59.87;100018.80;80776;1295;3026160;-64
2023/02/23 06:04:54;;;;;;;12.50;6.20;;;;;;;-6.37;60.15;100025.38;82036;1299;3017910;-63
2023/02/23 06:07:21;;;;;;;13.50;6.60;;;;;;;-6.49;61.02;100025.36;82015;1295;3011426;-64
2023/02/23 06:09:49;;;;;;;16.10;5.80;;;;;;;-6.40;60.97;100028.75;80759;1295;3053215;-64
2023/02/23 06:12:16;;;;;;;12.60;5.10;;;;;;;-6.36;60.87;100031.89;82017;1295;3012430;-64
2023/02/23 06:14:43;;;;;;;18.50;6.50;;;;;;;-6.42;60.84;100034.34;81998;1295;3011349;-63
2023/02/23 06:17:11;;;;;;;17.90;5.30;;;;;;;-6.46;60.93;100037.87;80766;1296;3068313;-65
2023/02/23 06:19:38;;;;;;;11.70;5.70;;;;;;;-6.45;60.74;100039.23;82024;1295;3012463;-63
2023/02/23 06:22:10;;;;;;;9.20;4.80;;;;;;;-6.48;61.36;100047.20;80775;1294;3049065;-63
2023/02/23 06:24:38;;;;;;;11.00;5.00;;;;;;;-6.45;61.02;100044.86;82032;1295;3011430;-64
2023/02/23 06:27:06;;;;;;;12.70;6.00;;;;;;;-6.28;59.94;100050.10;82050;1295;3011256;-64
2023/02/23 06:29:36;;;;;;;9.10;4.10;;;;;;;-6.22;59.40;100050.55;80761;1294;3053711;-64
2023/02/23 06:32:03;;;;;;;13.70;5.60;;;;;;;-6.32;59.71;100054.98;82004;1298;3011283;-64
2023/02/23 06:34:33;;;;;;;14.90;6.70;;;;;;;-6.51;60.14;100061.79;81516;1295;3011942;-64
2023/02/23 06:36:59;;;;;;;16.90;6.60;;;;;;;-6.28;60.46;100055.04;81947;1295;3012996;-63
2023/02/23 06:39:31;;;;;;;18.20;7.00;;;;;;;-6.03;60.07;100050.34;81481;1295;3011370;-65
2023/02/23 06:41:59;;;;;;;16.10;7.00;;;;;;;-5.96;60.14;100046.31;82045;1295;3012534;-63
2023/02/23 06:44:25;;;;;;;15.50;7.00;;;;;;;-5.93;59.74;100048.92;82050;1296;3011428;-65
2023/02/23 06:46:54;;;;;;;21.60;6.90;;;;;;;-5.75;59.52;100052.27;80753;1295;3051592;-65
2023/02/23 06:49:20;;;;;;;13.10;6.00;;;;;;;-5.64;58.26;100060.63;82017;1295;3018528;-65
2023/02/23 06:51:47;;;;;;;14.70;5.70;;;;;;;-5.79;57.63;100058.88;82043;1294;3011666;-63
2023/02/23 06:54:15;;;;;;;18.60;5.90;;;;;;;-5.89;58.21;100057.34;80765;1295;3027998;-63
2023/02/23 06:56:42;;;;;;;21.50;6.70;;;;;;;-5.94;58.51;100060.17;82081;1294;3011339;-63
2023/02/23 06:59:09;;;;;;;15.40;7.10;;;;;;;-5.80;58.44;100062.09;82029;1295;3011275;-64
2023/02/23 07:01:37;;;;;;;14.90;6.30;;;;;;;-5.76;57.59;100064.55;80748;1295;3052185;-64
2023/02/23 07:04:04;;;;;;;11.80;5.50;;;;;;;-5.86;57.61;100066.78;82040;1298;3012752;-64
2023/02/23 07:06:32;;;;;;;10.70;4.90;;;;;;;-5.84;56.98;100066.48;82032;1295;3011221;-64
2023/02/23 07:09:00;;;;;;;13.40;6.90;;;;;;;-5.81;56.27;100072.15;80773;1295;3048475;-64
2023/02/23 07:11:27;;;;;;;13.90;5.70;;;;;;;-5.66;56.65;100074.94;82068;1295;3011314;-67
2023/02/23 07:13:57;;;;;;;11.30;5.80;;;;;;;-5.73;55.49;100081.14;82044;1295;3011345;-63
2023/02/23 07:16:26;;;;;;;13.90;5.50;;;;;;;-5.95;55.09;100079.27;80770;1298;3053846;-66
2023/02/23 07:18:53;;;;;;;6.80;4.20;;;;;;;-5.75;55.34;100080.08;82062;1295;3012850;-63
2023/02/23 07:21:21;;;;;;;11.70;5.30;;;;;;;-5.81;54.90;100088.87;82013;1295;3011264;-62
2023/02/23 07:23:49;;;;;;;9.40;4.60;;;;;;;-5.68;55.69;100087.36;80735;1295;3048929;-64
2023/02/23 07:26:16;;;;;;;11.90;5.70;;;;;;;-5.62;54.94;100092.40;82049;1296;3013577;-63
2023/02/23 07:28:42;;;;;;;16.60;6.70;;;;;;;-5.64;54.39;100088.77;82064;1294;3011199;-62
2023/02/23 07:31:15;;;;;;;10.10;5.30;;;;;;;-5.66;55.06;100091.48;80761;1295;3052712;-64
2023/02/23 07:33:42;;;;;;;11.60;5.40;;;;;;;-5.46;54.14;100096.55;82066;1295;3012734;-64
2023/02/23 07:36:10;;;;;;;14.30;6.30;;;;;;;-5.29;53.42;100104.14;82053;1295;3011247;-63
2023/02/23 07:38:38;;;;;;;8.60;4.70;;;;;;;-5.25;53.48;100096.34;80805;1295;3049431;-62
2023/02/23 07:41:04;;;;;;;12.80;6.30;;;;;;;-5.15;52.96;100100.58;82033;1295;3012690;-63
2023/02/23 07:43:32;;;;;;;10.00;5.20;;;;;;;-5.30;53.31;100103.45;82051;1295;3011981;-64
2023/02/23 07:46:00;;;;;;;16.30;5.90;;;;;;;-5.47;53.13;100099.98;80786;1295;3053284;-65
2023/02/23 07:48:30;;;;;;;11.80;5.80;;;;;;;-5.50;53.38;100100.59;82041;1294;3011227;-65
2023/02/23 07:50:58;;;;;;;14.10;5.80;;;;;;;-5.35;53.46;100108.34;80803;1294;3026429;-65
2023/02/23 07:53:26;;;;;;;11.60;5.20;;;;;;;-5.21;53.44;100109.20;82062;1294;3012463;-65
2023/02/23 07:55:57;;;;;;;13.40;5.50;;;;;;;-5.15;53.30;100111.00;82039;1298;3011688;-64
2023/02/23 07:58:29;;;;;;;8.30;4.60;;;;;;;-5.00;53.34;100111.38;80762;1294;3049820;-65
2023/02/23 08:00:56;;;;;;;15.40;6.00;;;;;;;-5.18;53.08;100118.13;82024;1297;3011283;-63
2023/02/23 08:03:22;;;;;;;11.70;4.90;;;;;;;-5.10;52.29;100119.44;82046;1294;3011284;-65
2023/02/23 08:05:50;;;;;;;13.10;5.60;;;;;;;-5.14;52.92;100119.55;80788;1294;3050959;-65
2023/02/23 08:08:17;;;;;;;11.60;6.30;;;;;;;-4.87;52.63;100125.20;82049;1295;3013096;-65
2023/02/23 08:10:43;;;;;;;12.70;6.20;;;;;;;-4.54;52.64;100127.98;82043;1294;3010955;-64
2023/02/23 08:13:11;;;;;;;12.50;6.30;;;;;;;-4.62;51.78;100125.16;80780;1294;3025761;-65
2023/02/23 08:15:38;;;;;;;9.60;4.80;;;;;;;-4.49;51.39;100127.17;82101;1295;3012576;-63
2023/02/23 08:18:10;;;;;;;19.90;5.60;;;;;;;-4.44;51.05;100133.05;80811;1294;3069733;-63
2023/02/23 08:20:37;;;;;;;10.00;5.20;;;;;;;-4.57;51.08;100136.16;82081;1295;3017956;-63
2023/02/23 08:23:03;;;;;;;10.00;4.40;;;;;;;-4.65;51.98;100138.45;82035;1294;3011089;-64
2023/02/23 08:25:31;;;;;;;10.40;5.40;;;;;;;-4.85;51.39;100142.99;80783;1294;3026143;-63
2023/02/23 08:28:03;;;;;;;14.70;6.30;;;;;;;-4.89;51.56;100140.73;82045;1294;3012322;-64
2023/02/23 08:30:31;;;;;;;8.90;4.30;;;;;;;-5.00;51.31;100141.95;80786;1294;3052714;-64
2023/02/23 08:32:57;;;;;;;10.20;4.70;;;;;;;-4.78;50.72;100137.45;82027;1295;3013557;-63
2023/02/23 08:35:24;;;;;;;12.00;5.20;;;;;;;-4.63;50.48;100137.96;81990;1295;3011070;-65
2023/02/23 08:37:52;;;;;;;9.10;4.80;;;;;;;-4.48;50.55;100139.67;80777;1295;3047530;-64
2023/02/23 08:40:19;;;;;;;12.40;5.20;;;;;;;-4.37;50.19;100135.18;82047;1294;3012531;-65
2023/02/23 08:42:47;;;;;;;9.40;4.80;;;;;;;-4.16;50.36;100149.08;82028;1294;3011339;-64
2023/02/23 08:45:15;;;;;;;11.10;5.70;;;;;;;-4.13;50.36;100142.61;80797;1295;3052196;-64
2023/02/23 08:47:42;;;;;;;7.90;3.90;;;;;;;-4.01;49.73;100146.84;82066;1294;3012313;-64
2023/02/23 08:50:10;;;;;;;11.00;5.60;;;;;;;-4.05;49.74;100149.38;82044;1295;3011289;-64
2023/02/23 08:52:38;;;;;;;10.60;5.20;;;;;;;-4.11;49.67;100150.68;80818;1294;3048146;-63
2023/02/23 08:55:05;;;;;;;11.70;4.70;;;;;;;-3.86;48.97;100142.52;82061;1294;3013113;-63
2023/02/23 08:57:33;;;;;;;12.40;4.80;;;;;;;-3.94;48.70;100151.52;82054;1295;3011400;-64
2023/02/23 09:00:01;;;;;;;9.10;4.80;;;;;;;-4.04;49.25;100154.52;80736;1294;3053376;-64
2023/02/23 09:02:28;;;;;;;9.80;4.60;;;;;;;-3.69;49.00;100149.86;82081;1294;3012638;-65
2023/02/23 09:04:54;;;;;;;11.60;5.30;;;;;;;-3.50;48.47;100145.55;82032;1296;3011195;-62
2023/02/23 09:07:23;;;;;;;9.90;4.40;;;;;;;-3.05;48.27;100149.29;80783;1294;3026077;-64
2023/02/23 09:09:54;;;;;;;10.70;4.80;;;;;;;-3.02;47.60;100151.52;82025;1295;3012970;-62
2023/02/23 09:12:24;;;;;;;12.40;5.30;;;;;;;-3.06;47.51;100158.19;80750;1298;3051375;-61
2023/02/23 09:14:52;;;;;;;9.30;4.30;;;;;;;-3.25;47.60;100152.59;82037;1295;3012895;-63
2023/02/23 09:17:20;;;;;;;10.20;5.70;;;;;;;-2.83;47.46;100159.16;81983;1298;3011406;-61
2023/02/23 09:19:49;;;;;;;12.70;5.20;;;;;;;-2.95;47.26;100163.05;80737;1295;3056266;-61
2023/02/23 09:22:17;;;;;;;9.90;4.90;;;;;;;-3.21;47.17;100165.64;82021;1295;3011389;-63
2023/02/23 09:24:43;;;;;;;9.20;5.20;;;;;;;-3.32;47.50;100163.34;82000;1296;3011142;-61
2023/02/23 09:27:11;;;;;;;14.70;5.70;;;;;;;-3.48;47.66;100166.64;80795;1294;3051037;-61
2023/02/23 09:29:42;;;;;;;9.30;4.40;;;;;;;-3.16;47.16;100162.23;82045;1295;3018301;-61
2023/02/23 09:32:10;;;;;;;11.80;5.40;;;;;;;-2.99;46.51;100161.83;80768;1295;3050719;-61
2023/02/23 09:34:37;;;;;;;10.70;5.10;;;;;;;-2.78;46.42;100161.42;82079;1294;3012879;-62
2023/02/23 09:37:04;;;;;;;11.10;4.70;;;;;;;-2.71;46.36;100161.30;82007;1294;3011106;-61
2023/02/23 09:39:32;;;;;;;10.20;5.00;;;;;;;-2.59;46.39;100159.96;80732;1295;3049873;-61
2023/02/23 09:42:30;;;;;;;8.00;4.70;;;;;;;-2.67;46.87;100165.26;82000;1295;3011227;-62
2023/02/23 09:45:03;;;;;;;12.10;5.10;;;;;;;-2.38;46.74;100162.78;80654;1297;3052301;-62
2023/02/23 09:47:56;;;;;;;;;;;;;;;-2.43;46.79;100165.52;82017;1295;3011074;-62
2023/02/23 09:50:24;;;;;;;8.90;4.20;;;;;;;-2.62;46.70;100166.48;80626;1295;3051478;-63
2023/02/23 09:53:02;;;;;;;13.00;4.10;;;;;;;-2.57;46.80;100159.11;82008;1296;3012896;-62
2023/02/23 09:55:30;;;;;;;11.40;4.30;;;;;;;-2.53;46.40;100158.45;80777;1295;3053768;-61
2023/02/23 09:57:57;;;;;;;9.50;4.00;;;;;;;-2.58;46.58;100155.17;82059;1299;3018459;-62
2023/02/23 10:00:26;;;;;;;10.10;4.70;;;;;;;-2.45;46.55;100154.02;82031;1297;3011473;-63
2023/02/23 10:10:42;;;;;;;13.90;5.30;;;;;;;-2.13;46.81;100151.02;80799;1295;3056780;-61
2023/02/23 10:13:29;;;;;;;7.20;4.10;;;;;;;-2.11;46.35;100149.98;80781;1295;3049673;-61
2023/02/23 10:16:10;;;;;;;8.10;3.70;;;;;;;-2.61;46.33;100155.48;80783;1294;3052926;-61
2023/02/23 10:19:11;;;;;;;10.20;4.20;;;;;;;-2.71;47.02;100151.50;80720;1295;3050720;-61
2023/02/23 10:21:44;;;;;;;9.80;4.00;;;;;;;-2.61;47.32;100150.52;80720;1297;3052282;-63
2023/02/23 10:24:18;;;;;;;8.60;3.70;;;;;;;-2.30;47.06;100150.97;81994;1297;3012289;-61
2023/02/23 10:26:49;;;;;;;11.60;4.10;;;;;;;-2.13;46.61;100145.34;80758;1295;3069636;-60
2023/02/23 10:29:38;;;;;;;11.70;4.60;;;;;;;-2.46;46.76;100148.01;82008;1295;3011554;-62
2023/02/23 10:32:29;;;;;;;10.20;4.40;;;;;;;-2.27;47.01;100141.71;80726;1295;3057518;-60
2023/02/23 10:34:57;;;;;;;8.40;4.60;;;;;;;-2.15;46.35;100152.21;80763;1295;3050769;-61
2023/02/23 10:37:23;;;;;;;7.90;4.10;;;;;;;-2.29;45.88;100150.28;82042;1294;3018067;-61
2023/02/23 10:39:50;;;;;;;10.70;4.60;;;;;;;-1.95;45.49;100141.42;82025;1294;3011310;-60
2023/02/23 10:42:22;;;;;;;9.10;4.20;;;;;;;-1.83;45.31;100142.30;80788;1294;3027575;-61
2023/02/23 10:44:49;;;;;;;10.30;5.20;;;;;;;-1.70;45.56;100144.88;81992;1295;3011345;-61
2023/02/23 10:47:29;;;;;;;7.30;4.10;;;;;;;-1.75;45.27;100141.79;80726;1294;3051535;-60
2023/02/23 10:49:58;;;;;;;9.80;4.90;;;;;;;-1.89;45.58;100143.50;80680;1295;3056614;-61
2023/02/23 10:52:29;;;;;;;13.30;4.60;;;;;;;-1.59;45.02;100141.09;82057;1295;3012795;-61
2023/02/23 10:54:57;;;;;;;10.80;4.80;;;;;;;-1.43;44.36;100145.23;80787;1294;3050733;-62
2023/02/23 10:57:29;;;;;;;9.60;4.90;;;;;;;-1.62;44.65;100138.52;82103;1294;3012864;-60
2023/02/23 11:00:09;;;;;;;9.80;4.40;;;;;;;-1.77;45.05;100141.27;80795;1294;3069406;-61
2023/02/23 11:02:40;;;;;;;7.40;3.90;;;;;;;-1.52;44.61;100142.65;80792;1295;3050931;-62
2023/02/23 11:05:30;;;;;;;7.60;4.40;;;;;;;-1.58;43.80;100139.89;82069;1294;3012703;-62
2023/02/23 11:08:09;;;;;;;8.60;3.80;;;;;;;-1.72;45.03;100143.86;80789;1295;3054042;-60
2023/02/23 11:10:37;;;;;;;12.60;4.70;;;;;;;-1.45;44.79;100147.80;80762;1295;3049505;-60
2023/02/23 11:13:03;;;;;;;12.60;4.70;;;;;;;-1.65;45.25;100152.43;82058;1294;3018830;-61
2023/02/23 11:15:32;;;;;;;9.40;4.70;;;;;;;-1.75;45.38;100156.21;82022;1294;3011534;-65
2023/02/23 11:18:01;;;;;;;11.00;4.20;;;;;;;-1.83;45.68;100154.50;80783;1294;3049783;-60
2023/02/23 11:20:35;;;;;;;8.60;4.20;;;;;;;-1.52;45.50;100157.08;82037;1295;3013246;-61
2023/02/23 11:23:21;;;;;;;5.70;3.60;;;;;;;-1.49;44.66;100165.84;80797;1294;3050768;-62
2023/02/23 11:25:51;;;;;;;7.70;3.60;;;;;;;-1.28;44.20;100158.10;80798;1294;3053166;-61
2023/02/23 11:28:19;;;;;;;8.90;3.70;;;;;;;-1.07;44.13;100163.58;82070;1295;3011450;-61
2023/02/23 11:30:49;;;;;;;8.30;3.60;;;;;;;-1.31;44.20;100159.81;80790;1294;3050475;-61
2023/02/23 11:33:18;;;;;;;9.00;4.60;;;;;;;-1.52;44.70;100167.58;82092;1294;3012887;-61
2023/02/23 11:35:47;;;;;;;8.70;4.40;;;;;;;-1.81;46.38;100164.80;81479;1294;3011564;-61
2023/02/23 11:38:23;;;;;;;6.80;4.20;;;;;;;-1.71;46.83;100158.11;82047;1295;3013191;-59
2023/02/23 11:41:06;;;;;;;9.70;4.40;;;;;;;-1.49;46.46;100157.59;80780;1294;3054225;-61
2023/02/23 11:43:34;;;;;;;;;;;;;;;-1.16;45.82;100156.03;80803;1294;3050853;-62
2023/02/23 11:46:01;;;;;;;8.60;4.00;;;;;;;-0.96;45.21;100151.16;82033;1299;3012898;-61
2023/02/23 11:48:33;;;;;;;8.60;4.50;;;;;;;-0.91;44.85;100147.88;82030;1294;3011524;-61
2023/02/23 11:51:01;;;;;;;9.20;4.50;;;;;;;-0.85;44.90;100144.58;80749;1294;3051787;-62
2023/02/23 11:53:34;;;;;;;8.00;4.10;;;;;;;-0.99;44.65;100152.38;82036;1294;3012857;-61
2023/02/23 11:56:09;;;;;;;7.80;3.80;;;;;;;-0.86;44.57;100145.64;80776;1294;3053441;-61
2023/02/23 11:58:48;;;;;;;6.10;3.50;;;;;;;-1.18;44.53;100162.73;80663;1295;3049072;-62
2023/02/23 12:01:40;;;;;;;9.40;4.70;;;;;;;-1.15;45.25;100157.39;80733;1295;3051234;-63
2023/02/23 12:04:09;;;;;;;7.90;3.90;;;;;;;-1.12;45.42;100161.51;80766;1295;3052880;-61
2023/02/23 12:06:37;;;;;;;7.40;4.30;;;;;;;-0.95;45.46;100160.62;82074;1294;3011391;-62
2023/02/23 12:12:08;;;;;;;8.90;4.60;;;;;;;-0.81;45.81;100157.65;80351;1300;3013505;-63
2023/02/23 12:14:59;;;;;;;9.60;5.60;;;;;;;-0.66;44.74;100171.36;79157;1298;3011656;-62
2023/02/23 12:17:31;;;;;;;7.90;3.80;;;;;;;-1.00;43.55;100170.95;78052;1302;3050975;-63
2023/02/23 12:20:31;;;;;;;10.20;4.30;;;;;;;-1.15;43.62;100173.21;79314;1303;3012574;-61
2023/02/23 12:23:20;;;;;;;7.80;4.00;;;;;;;-1.16;44.61;100170.98;78266;1303;3052285;-63
2023/02/23 12:25:54;;;;;;;8.00;4.20;;;;;;;-1.04;44.61;100178.69;76239;1297;3070262;-63
2023/02/23 12:28:44;;;;;;;7.30;3.70;;;;;;;-0.86;44.32;100177.09;78233;1298;3050479;-63
2023/02/23 12:31:39;;;;;;;8.20;4.00;;;;;;;-1.05;43.89;100179.55;79356;1296;3013507;-65
2023/02/23 12:34:16;;;;;;;8.70;4.00;;;;;;;-1.00;44.08;100180.23;78052;1298;3049038;-62
2023/02/23 12:36:46;;;;;;;10.80;5.30;;;;;;;-1.02;44.66;100178.34;78103;1296;3054829;-63
2023/02/23 12:39:51;;;;;;;8.40;3.70;;;;;;;-0.88;45.08;100175.22;79317;1296;3013053;-62
2023/02/23 12:42:25;;;;;;;7.10;4.10;;;;;;;-0.53;43.75;100177.35;78132;1300;3053934;-63
2023/02/23 12:44:52;;;;;;;8.10;4.40;;;;;;;-0.65;43.04;100183.75;79393;1300;3013986;-65
2023/02/23 12:47:32;;;;;;;11.20;4.40;;;;;;;-0.75;43.18;100176.73;78694;1297;3068494;-64
2023/02/23 12:50:10;;;;;;;6.40;3.30;;;;;;;-0.98;42.86;100179.88;78366;1301;3051678;-63
2023/02/23 12:52:44;;;;;;;5.90;3.40;;;;;;;-0.89;43.60;100172.30;78336;1300;3057712;-66
2023/02/23 12:55:14;;;;;;;9.10;3.70;;;;;;;-0.62;43.26;100174.11;78280;1297;3047993;-65